| time (UTC) | temp F | wind direction | speed MPH | gust MPH | rain 1hr in | rain 24hr in | rain mn in | humidity % | barometer mb |
| 20260509011004 | 38 | 360 | 0.0 | 2.0 | 0.00 | 0.09 | 0.09 | 84 | 1011.3 |
| 20260509010004 | 38 | 360 | 0.0 | 2.0 | 0.00 | 0.09 | 0.09 | 84 | 1011.1 |
| 20260509005003 | 38 | 360 | 0.0 | 2.0 | 0.00 | 0.09 | 0.09 | 84 | 1011.0 |
| 20260509004003 | 38 | 360 | 0.0 | 3.0 | 0.00 | 0.09 | 0.09 | 84 | 1010.9 |
| 20260509003003 | 38 | 360 | 1.0 | 2.0 | 0.00 | 0.09 | 0.09 | 84 | 1010.9 |
| 20260509002003 | 38 | 360 | 1.0 | 2.0 | 0.00 | 0.09 | 0.09 | 84 | 1010.8 |
| 20260509001003 | 38 | 360 | 1.0 | 2.0 | 0.00 | 0.09 | 0.09 | 84 | 1010.6 |
| 20260509000005 | 38 | 360 | 1.0 | 2.0 | 0.00 | 0.09 | 0.09 | 84 | 1010.7 |
| 20260508235003 | 38 | 360 | 0.0 | 2.0 | 0.00 | 0.09 | 0.09 | 84 | 1010.6 |
| 20260508234004 | 38 | 360 | 1.0 | 4.0 | 0.00 | 0.09 | 0.09 | 84 | 1010.4 |
| 20260508233003 | 38 | 360 | 1.0 | 3.0 | 0.00 | 0.09 | 0.09 | 84 | 1010.5 |
| 20260508232003 | 38 | 360 | 0.0 | 3.0 | 0.00 | 0.09 | 0.09 | 84 | 1010.6 |
| 20260508231003 | 38 | 360 | 1.0 | 3.0 | 0.00 | 0.09 | 0.09 | 84 | 1010.5 |
| 20260508230003 | 38 | 360 | 0.0 | 3.0 | 0.00 | 0.09 | 0.09 | 84 | 1010.5 |
| 20260508225213 | 38 | 360 | 2.0 | 6.0 | 0.00 | 0.09 | 0.09 | 84 | 1010.4 |
| 20260508224003 | 38 | 360 | 1.0 | 3.0 | 0.00 | 0.09 | 0.09 | 84 | 1010.6 |
| 20260508223003 | 38 | 360 | 3.0 | 10.0 | 0.00 | 0.09 | 0.09 | 84 | 1010.6 |
| 20260508222003 | 38 | 360 | 2.0 | 9.0 | 0.00 | 0.09 | 0.09 | 84 | 1010.7 |
| 20260508221003 | 38 | 360 | 2.0 | 6.0 | 0.00 | 0.09 | 0.09 | 84 | 1010.7 |
| 20260508220003 | 38 | 360 | 2.0 | 7.0 | 0.00 | 0.09 | 0.09 | 84 | 1010.9 |
| 20260508215004 | 38 | 360 | 2.0 | 8.0 | 0.00 | 0.09 | 0.09 | 84 | 1011.0 |
| 20260508214005 | 38 | 360 | 1.0 | 4.0 | 0.00 | 0.09 | 0.09 | 84 | 1010.9 |
| 20260508213004 | 38 | 360 | 1.0 | 7.0 | 0.00 | 0.09 | 0.09 | 84 | 1011.0 |
| 20260508212005 | 38 | 360 | 2.0 | 7.0 | 0.00 | 0.09 | 0.09 | 84 | 1011.1 |
| 20260508211215 | 38 | 360 | 3.0 | 8.0 | 0.00 | 0.09 | 0.09 | 84 | 1010.9 |
| 20260508210005 | 38 | 360 | 3.0 | 9.0 | 0.00 | 0.09 | 0.09 | 84 | 1011.0 |
| 20260508205004 | 38 | 360 | 4.0 | 11.0 | 0.00 | 0.09 | 0.09 | 84 | 1011.3 |
| 20260508204004 | 38 | 360 | 4.0 | 10.0 | 0.00 | 0.09 | 0.09 | 84 | 1011.1 |
| 20260508203005 | 38 | 360 | 3.0 | 13.0 | 0.00 | 0.09 | 0.09 | 84 | 1011.1 |
| 20260508202214 | 38 | 360 | 4.0 | 13.0 | 0.00 | 0.09 | 0.09 | 84 | 1011.1 |
| 20260508201004 | 38 | 360 | 7.0 | 15.0 | 0.00 | 0.09 | 0.09 | 84 | 1011.3 |
| 20260508200004 | 38 | 360 | 4.0 | 10.0 | 0.00 | 0.09 | 0.09 | 84 | 1011.4 |
| 20260508195004 | 38 | 360 | 5.0 | 11.0 | 0.00 | 0.09 | 0.09 | 84 | 1011.5 |
| 20260508194005 | 38 | 360 | 4.0 | 11.0 | 0.00 | 0.09 | 0.09 | 84 | 1011.7 |
| 20260508193005 | 38 | 360 | 4.0 | 13.0 | 0.00 | 0.09 | 0.09 | 84 | 1011.6 |
| 20260508192006 | 38 | 360 | 2.0 | 9.0 | 0.00 | 0.09 | 0.09 | 84 | 1011.6 |
| 20260508191003 | 38 | 360 | 2.0 | 11.0 | 0.00 | 0.09 | 0.09 | 84 | 1011.8 |
| 20260508190004 | 38 | 360 | 3.0 | 9.0 | 0.00 | 0.09 | 0.09 | 84 | 1011.7 |
| 20260508185003 | 38 | 360 | 2.0 | 9.0 | 0.00 | 0.09 | 0.09 | 84 | 1011.9 |
| 20260508184003 | 38 | 360 | 2.0 | 9.0 | 0.00 | 0.09 | 0.09 | 84 | 1011.9 |
| 20260508183005 | 38 | 360 | 3.0 | 9.0 | 0.00 | 0.09 | 0.09 | 84 | 1012.1 |
| 20260508182003 | 38 | 360 | 5.0 | 11.0 | 0.00 | 0.09 | 0.09 | 84 | 1012.2 |
| 20260508181004 | 38 | 360 | 4.0 | 11.0 | 0.00 | 0.09 | 0.09 | 84 | 1012.3 |
| 20260508180004 | 38 | 360 | 4.0 | 11.0 | 0.00 | 0.09 | 0.09 | 84 | 1012.1 |
| 20260508175003 | 38 | 360 | 4.0 | 10.0 | 0.00 | 0.09 | 0.09 | 84 | 1012.2 |
| 20260508174005 | 38 | 360 | 2.0 | 9.0 | 0.00 | 0.09 | 0.09 | 84 | 1012.2 |
| 20260508173004 | 38 | 360 | 4.0 | 10.0 | 0.00 | 0.09 | 0.09 | 84 | 1012.4 |
| 20260508172004 | 38 | 360 | 3.0 | 8.0 | 0.00 | 0.09 | 0.09 | 84 | 1012.4 |
| 20260508171004 | 38 | 360 | 2.0 | 7.0 | 0.00 | 0.09 | 0.09 | 84 | 1012.4 |
| 20260508170005 | 38 | 360 | 3.0 | 10.0 | 0.00 | 0.09 | 0.09 | 84 | 1012.7 |
| 20260508165003 | 38 | 360 | 3.0 | 9.0 | 0.00 | 0.09 | 0.09 | 84 | 1012.7 |
| 20260508164213 | 38 | 360 | 3.0 | 8.0 | 0.00 | 0.09 | 0.09 | 84 | 1012.5 |
| 20260508163215 | 38 | 360 | 3.0 | 8.0 | 0.00 | 0.09 | 0.09 | 84 | 1012.4 |
| 20260508162215 | 38 | 360 | 3.0 | 8.0 | 0.00 | 0.09 | 0.09 | 84 | 1012.4 |
| 20260508161213 | 38 | 360 | 3.0 | 9.0 | 0.00 | 0.09 | 0.09 | 84 | 1012.5 |
| 20260508160215 | 38 | 360 | 3.0 | 10.0 | 0.00 | 0.09 | 0.09 | 84 | 1012.5 |
| 20260508155004 | 38 | 360 | 3.0 | 9.0 | 0.00 | 0.09 | 0.09 | 84 | 1012.5 |
| 20260508154004 | 38 | 360 | 3.0 | 9.0 | 0.00 | 0.09 | 0.09 | 84 | 1012.5 |
| 20260508153007 | 38 | 360 | 4.0 | 9.0 | 0.00 | 0.09 | 0.09 | 84 | 1012.6 |
| 20260508152003 | 38 | 360 | 4.0 | 10.0 | 0.01 | 0.09 | 0.09 | 84 | 1012.7 |
| 20260508151215 | 38 | 360 | 3.0 | 10.0 | 0.01 | 0.09 | 0.09 | 84 | 1012.6 |
| 20260508150215 | 38 | 360 | 2.0 | 6.0 | 0.01 | 0.09 | 0.09 | 84 | 1012.6 |
| 20260508145006 | 38 | 360 | 3.0 | 8.0 | 0.01 | 0.09 | 0.09 | 84 | 1012.5 |
| 20260508144215 | 38 | 360 | 3.0 | 10.0 | 0.01 | 0.09 | 0.09 | 84 | 1013.0 |
| 20260508143006 | 38 | 360 | 3.0 | 8.0 | 0.02 | 0.09 | 0.09 | 84 | 1013.0 |
| 20260508142004 | 38 | 360 | 2.0 | 6.0 | 0.02 | 0.08 | 0.08 | 84 | 1012.8 |
| 20260508141214 | 38 | 360 | 2.0 | 5.0 | 0.02 | 0.08 | 0.08 | 84 | 1012.5 |
| 20260508140006 | 38 | 360 | 3.0 | 11.0 | 0.02 | 0.08 | 0.08 | 84 | 1012.3 |
| 20260508135005 | 38 | 360 | 1.0 | 4.0 | 0.02 | 0.08 | 0.08 | 84 | 1012.4 |
| 20260508134004 | 38 | 360 | 1.0 | 6.0 | 0.02 | 0.08 | 0.08 | 84 | 1012.2 |
| 20260508133005 | 38 | 360 | 2.0 | 7.0 | 0.01 | 0.07 | 0.07 | 84 | 1012.3 |
| 20260508132004 | 38 | 360 | 2.0 | 6.0 | 0.00 | 0.06 | 0.06 | 84 | 1012.2 |
| 20260508131003 | 38 | 360 | 2.0 | 8.0 | 0.00 | 0.06 | 0.06 | 84 | 1012.2 |
| 20260508130004 | 38 | 360 | 2.0 | 9.0 | 0.00 | 0.06 | 0.06 | 84 | 1012.1 |
| 20260508125003 | 38 | 360 | 4.0 | 9.0 | 0.00 | 0.06 | 0.06 | 84 | 1012.0 |
| 20260508124216 | 38 | 360 | 2.0 | 7.0 | 0.00 | 0.06 | 0.06 | 84 | 1011.8 |
| 20260508123005 | 38 | 360 | 1.0 | 5.0 | 0.00 | 0.06 | 0.06 | 84 | 1011.5 |
| 20260508122003 | 38 | 360 | 1.0 | 5.0 | 0.00 | 0.06 | 0.06 | 84 | 1011.2 |
| 20260508121005 | 38 | 360 | 2.0 | 4.0 | 0.00 | 0.06 | 0.06 | 84 | 1011.4 |
| 20260508120004 | 38 | 360 | 1.0 | 4.0 | 0.00 | 0.06 | 0.06 | 84 | 1011.5 |
| 20260508115005 | 38 | 360 | 0.0 | 2.0 | 0.00 | 0.06 | 0.06 | 84 | 1011.4 |
| 20260508114003 | 38 | 360 | 0.0 | 2.0 | 0.00 | 0.06 | 0.06 | 84 | 1011.7 |
| 20260508113005 | 38 | 360 | 0.0 | 3.0 | 0.00 | 0.06 | 0.06 | 84 | 1011.4 |
| 20260508112004 | 38 | 360 | 0.0 | 3.0 | 0.00 | 0.06 | 0.06 | 84 | 1011.6 |
| 20260508111215 | 38 | 360 | 1.0 | 5.0 | 0.00 | 0.06 | 0.06 | 84 | 1011.6 |
| 20260508110213 | 38 | 360 | 2.0 | 6.0 | 0.00 | 0.06 | 0.06 | 84 | 1011.7 |
| 20260508105003 | 38 | 360 | 3.0 | 10.0 | 0.00 | 0.06 | 0.06 | 84 | 1011.7 |
| 20260508104004 | 38 | 360 | 2.0 | 6.0 | 0.00 | 0.06 | 0.06 | 84 | 1011.8 |
| 20260508103003 | 38 | 360 | 2.0 | 5.0 | 0.00 | 0.06 | 0.06 | 84 | 1011.9 |
| 20260508102005 | 38 | 360 | 2.0 | 3.0 | 0.00 | 0.06 | 0.06 | 84 | 1011.5 |
| 20260508101004 | 38 | 360 | 2.0 | 3.0 | 0.00 | 0.06 | 0.06 | 84 | 1011.7 |
| 20260508100004 | 38 | 360 | 2.0 | 3.0 | 0.00 | 0.06 | 0.06 | 84 | 1011.8 |
| 20260508095003 | 38 | 360 | 2.0 | 3.0 | 0.00 | 0.06 | 0.06 | 84 | 1011.6 |
| 20260508094215 | 38 | 360 | 2.0 | 3.0 | 0.00 | 0.06 | 0.06 | 84 | 1011.5 |
| 20260508093003 | 38 | 360 | 2.0 | 3.0 | 0.00 | 0.06 | 0.06 | 84 | 1011.4 |
| 20260508092004 | 38 | 360 | 2.0 | 3.0 | 0.00 | 0.06 | 0.06 | 84 | 1011.3 |
| 20260508091005 | 38 | 360 | 2.0 | 3.0 | 0.05 | 0.06 | 0.06 | 84 | 1011.3 |
| 20260508090004 | 38 | 360 | 2.0 | 3.0 | 0.05 | 0.06 | 0.06 | 84 | 1011.3 |
| 20260508085005 | 38 | 360 | 2.0 | 3.0 | 0.05 | 0.06 | 0.06 | 84 | 1011.4 |
| 20260508084004 | 38 | 360 | 2.0 | 3.0 | 0.05 | 0.06 | 0.06 | 84 | 1011.3 |
| 20260508083006 | 38 | 360 | 2.0 | 3.0 | 0.05 | 0.06 | 0.06 | 84 | 1011.1 |
| 20260508082004 | 38 | 360 | 2.0 | 3.0 | 0.05 | 0.06 | 0.06 | 84 | 1011.2 |
| 20260508081005 | 38 | 360 | 4.0 | 7.0 | 0.00 | 0.01 | 0.01 | 84 | 1011.2 |
| 20260508080005 | 38 | 360 | 4.0 | 7.0 | 0.00 | 0.01 | 0.01 | 84 | 1011.3 |
| 20260508075004 | 38 | 360 | 4.0 | 7.0 | 0.00 | 0.01 | 0.01 | 84 | 1011.3 |
| 20260508074007 | 38 | 360 | 4.0 | 7.0 | 0.00 | 0.01 | 0.01 | 84 | 1011.4 |
| 20260508073005 | 38 | 360 | 4.0 | 7.0 | 0.00 | 0.01 | 0.01 | 84 | 1011.5 |
| 20260508072004 | 38 | 360 | 4.0 | 7.0 | 0.00 | 0.01 | 0.01 | 84 | 1011.6 |
| 20260508071005 | 38 | 360 | 4.0 | 7.0 | 0.01 | 0.01 | 0.01 | 84 | 1011.6 |
| 20260508070004 | 38 | 360 | 4.0 | 7.0 | 0.01 | 0.01 | 0.01 | 84 | 1011.5 |
| 20260508065003 | 38 | 360 | 4.0 | 7.0 | 0.01 | 0.01 | 0.01 | 84 | 1011.6 |
| 20260508064005 | 38 | 360 | 4.0 | 7.0 | 0.01 | 0.01 | 0.01 | 84 | 1011.8 |
| 20260508063004 | 38 | 360 | 4.0 | 7.0 | 0.01 | 0.01 | 0.01 | 84 | 1011.8 |
| 20260508062003 | 38 | 360 | 3.0 | 10.0 | 0.01 | 0.01 | 0.01 | 84 | 1011.6 |
| 20260508061004 | 38 | 360 | 3.0 | 9.0 | 0.00 | 0.00 | 0.00 | 84 | 1011.5 |
| 20260508060006 | 38 | 360 | 3.0 | 8.0 | 0.00 | 0.00 | 0.00 | 84 | 1011.4 |
| 20260508055006 | 38 | 360 | 2.0 | 10.0 | 0.00 | 0.00 | 0.00 | 84 | 1011.3 |
| 20260508054003 | 38 | 360 | 2.0 | 8.0 | 0.00 | 0.00 | 0.00 | 84 | 1011.1 |
| 20260508053004 | 38 | 360 | 2.0 | 7.0 | 0.00 | 0.00 | 0.00 | 84 | 1011.1 |
| 20260508052213 | 38 | 360 | 2.0 | 7.0 | 0.00 | 0.00 | 0.00 | 84 | 1011.0 |
| 20260508051004 | 38 | 360 | 1.0 | 7.0 | 0.00 | 0.00 | 0.00 | 84 | 1011.0 |
| 20260508050003 | 38 | 360 | 1.0 | 3.0 | 0.00 | 0.00 | 0.00 | 84 | 1011.0 |
| 20260508045003 | 38 | 360 | 1.0 | 4.0 | 0.00 | 0.00 | 0.00 | 84 | 1011.0 |
| 20260508044003 | 38 | 360 | 1.0 | 4.0 | 0.00 | 0.00 | 0.00 | 84 | 1011.0 |
| 20260508043003 | 38 | 360 | 1.0 | 5.0 | 0.00 | 0.00 | 0.00 | 84 | 1011.1 |
| 20260508042004 | 38 | 360 | 1.0 | 5.0 | 0.00 | 0.00 | 0.00 | 84 | 1011.1 |
| 20260508041004 | 38 | 360 | 0.0 | 2.0 | 0.00 | 0.00 | 0.00 | 84 | 1010.9 |
| 20260508040008 | 38 | 360 | 0.0 | 4.0 | 0.00 | 0.00 | 0.00 | 84 | 1011.2 |
| 20260508035003 | 38 | 360 | 0.0 | 3.0 | 0.00 | 0.00 | 0.00 | 84 | 1010.9 |
| 20260508034004 | 38 | 360 | 1.0 | 4.0 | 0.00 | 0.00 | 0.00 | 84 | 1010.8 |
| 20260508033003 | 38 | 360 | 1.0 | 4.0 | 0.00 | 0.00 | 0.00 | 84 | 1011.0 |
| 20260508032004 | 38 | 360 | 0.0 | 3.0 | 0.00 | 0.00 | 0.00 | 84 | 1010.8 |
| 20260508031004 | 38 | 360 | 1.0 | 4.0 | 0.00 | 0.00 | 0.00 | 84 | 1010.6 |
| 20260508030004 | 38 | 0 | 0.0 | 2.0 | 0.00 | 0.00 | 0.00 | 84 | 1010.8 |
| 20260508025005 | 38 | 360 | 0.0 | 4.0 | 0.00 | 0.00 | 0.00 | 84 | 1010.6 |
| 20260508024004 | 38 | 0 | 0.0 | 0.0 | 0.00 | 0.00 | 0.00 | 84 | 1010.5 |
| 20260508023004 | 38 | 0 | 0.0 | 0.0 | 0.00 | 0.00 | 0.00 | 84 | 1010.4 |
| 20260508022214 | 38 | 360 | 0.0 | 2.0 | 0.00 | 0.00 | 0.00 | 84 | 1010.4 |
| 20260508021004 | 38 | 360 | 0.0 | 3.0 | 0.00 | 0.00 | 0.00 | 84 | 1010.6 |
| 20260508020004 | 38 | 360 | 0.0 | 3.0 | 0.00 | 0.00 | 0.00 | 84 | 1010.7 |
| 20260508015004 | 38 | 360 | 0.0 | 2.0 | 0.00 | 0.00 | 0.00 | 84 | 1010.7 |
| 20260508014004 | 38 | 0 | 0.0 | 2.0 | 0.00 | 0.00 | 0.00 | 84 | 1010.8 |
| 20260508013004 | 38 | 360 | 0.0 | 2.0 | 0.00 | 0.00 | 0.00 | 84 | 1010.6 |
| 20260508012005 | 38 | 0 | 0.0 | 0.0 | 0.00 | 0.00 | 0.00 | 84 | 1010.7 |